Ursvikens väder

stationens status  
Klimatstatistik

Klimatstatistik


Report for 2009 Aug
                   Monthly Climatological Summary for aug 2009

Name: Ursviken   City:    State: 
Elevation: 35 m  Lat: N 64° 42' 41"   Lon: E 021° 10' 44"

                  Temperature (°C), Rain (mm), Wind Speed (m/s)

                                      Heat  Cool        Avg
    Mean                              Deg   Deg         Wind                 Dom
Day Temp  High   Time   Low    Time   Days  Days  Rain  Speed High   Time    Dir
----------------------------------------------------------------------------------
 1  18,0  21,0   00:00  15,0   00:00   0,3   0,0   8,7   0,5   4,1   00:00   ---
 2  17,6  21,0   00:00  14,2   00:00   0,7   0,0   8,7   0,8   5,4   00:00   ---
 3  16,8  22,4   00:00  11,1   00:00   1,5   0,0   0,0   0,8   5,8   00:00   ---
 4  15,6  21,5   00:00   9,8   00:00   2,6   0,0   0,0   0,6   4,1   00:00   ---
 5  16,5  23,9   00:00   9,1   00:00   1,8   0,0   0,0   0,3   4,8   00:00   ---
 6  19,4  27,5   00:00  11,2   00:00   0,0   1,1   0,0   0,3   3,4   00:00   ---
 7  19,5  26,1   00:00  13,0   00:00   0,0   0,0   0,0   0,3   2,7   00:00   ---
 8  21,5  29,8   00:00  13,3   00:00   0,0   0,0   0,6   0,3   3,4   00:00   ---
 9  23,0  30,9   00:00  15,1   00:00   0,0   0,0   0,6   0,3   3,1   00:00   ---
10  21,0  27,2   00:00  14,7   00:00   0,0   2,7   0,0   0,3   5,1   00:00   ---
11  20,8  25,8   00:00  15,8   00:00   0,0   0,0   0,0   0,3   3,7   00:00   ---
12  15,4  19,8   00:00  11,0   00:00   2,9   0,0   7,2   0,4   4,8   00:00   ---
13  14,4  21,0   00:00   7,8   00:00   3,9   0,0   7,2   0,8   4,8   00:00   ---
14  13,3  21,1   00:00   5,4   00:00   5,0   0,0   0,0   0,3   3,4   00:00   ---
15  13,4  20,7   00:00   6,2   00:00   4,8   0,2   0,0   0,6   4,1   00:00   ---
16   8,8  13,6   00:00   4,0   00:00   9,5   0,0  10,8   0,5   5,1   00:00   ---
17  12,7  18,5   00:00   6,9   00:00   5,6   0,0  11,7   1,0   6,5   00:00   ---
18  12,8  21,1   00:00   4,5   00:00   7,6   0,0   7,5   0,3   3,4   00:00   NNO
19  11,4  17,5   00:00   5,4   00:00   6,8   0,0   7,5   0,7   5,1   00:00   ---
20   8,5  15,5   00:00   1,5   00:00   9,8   0,0   0,0   0,8   5,1   00:00   ---
21  18,5  23,5   00:00  13,4   00:00   8,0   0,0   0,0   0,6   4,8   00:00     V
22  15,0  20,0   00:00  10,0   00:00   3,3   0,0   0,0   0,7   3,4   00:00   ---
23  15,4  21,9   00:00   8,9   00:00   2,9   0,0   0,0   0,3   3,1   00:00   ---
24  14,9  22,7   00:00   7,1   00:00  10,3   0,0   0,0   0,5   4,4   00:00     V
25  12,3  20,1   00:00   4,5   00:00   6,0   0,0   0,0   0,3   3,4   00:00   ---
26  16,7  21,3   00:00  12,1   00:00   1,6   4,3   0,0   0,2   3,4   00:00   ---
27  13,9  17,1   00:00  10,6   00:00   4,4   0,0   0,0   0,3   3,7   00:00   ---
28  12,4  17,0   00:00   7,7   00:00   5,9   0,0   1,8   0,3   2,7   00:00   ---
29  15,9  18,2   00:00  13,5   00:00   2,4   0,0   6,6   0,6   4,4   00:00   ---
30  16,4  20,1   00:00  12,7   00:00   1,9   0,0   5,1   0,7   4,8   00:00   ---
31  15,7  20,4   00:00  11,0   00:00   2,6   0,0   1,8   0,6   5,1   00:00   ---
----------------------------------------------------------------------------------
    15,7  30,9     9     1,5    20   112,5   8,2  85,8   0,5   6,5    17       N

Max >=  20,0: 23
Max <=   0,0:  0
Min <=   0,0:  0
Min <= -20,0:  0
Max Rain: 11,7 on day 17
Days of Rain: 14 (>= 0,2 mm)  10 (>= 2,0 mm)  0 (>= 20,0 mm)
Heat Base: 18,3  Cool Base: 18,3  Method: Integration
 
: nu: mätare: diagram: idag och igår: månad och år: rekord: månadsrekord: statistik:
Startsidan Ursviken Örviken

Välkommen till Lundströms väder
Väderstationen som används är en WH1080, Uppdaterad 2024-06-13 15:25:01
skapad av Cumulus v1.9.4 (10992)
Forum
sedan 22 dec 2012